Index of /documents/NL.IMRO.0141.BP00014-0601/


../
NL.IMRO.0141.BP00014-0601.css                      10-Jun-2013 23:27               28221
NL.IMRO.0141.BP00014-0601.gml                      10-Jun-2013 23:27             4645332
NL.IMRO.0141.BP00014-0601_Index.html               10-Jun-2013 23:27                9404
RotekstTemplate.css                                10-Jun-2013 23:27                2534
g_NL.IMRO.0141.BP00014-0601.xml                    10-Jun-2013 23:27               16573
manifest.xml                                       10-Jun-2013 23:27               44854
r_NL.IMRO.0141.BP00014-0601_0001Regels.html        10-Jun-2013 23:27              294756
r_NL.IMRO.0141.BP00014-0601_0002Inleidenderegel..> 10-Jun-2013 23:27               28047
r_NL.IMRO.0141.BP00014-0601_0003Begrippen.html     10-Jun-2013 23:27               24858
r_NL.IMRO.0141.BP00014-0601_0004Wijzevanmeten.html 10-Jun-2013 23:27                5662
r_NL.IMRO.0141.BP00014-0601_0005Bestemmingsrege..> 10-Jun-2013 23:27              252147
r_NL.IMRO.0141.BP00014-0601_0006Bedrijf.html       10-Jun-2013 23:27               22158
r_NL.IMRO.0141.BP00014-0601_0007Detailhandel.html  10-Jun-2013 23:27               10256
r_NL.IMRO.0141.BP00014-0601_0008Gemengd1.html      10-Jun-2013 23:27               31290
r_NL.IMRO.0141.BP00014-0601_0009Gemengd2.html      10-Jun-2013 23:27               13477
r_NL.IMRO.0141.BP00014-0601_0010Groen.html         10-Jun-2013 23:27                9873
r_NL.IMRO.0141.BP00014-0601_0011Kantoor.html       10-Jun-2013 23:27               11120
r_NL.IMRO.0141.BP00014-0601_0012Maatschappelijk..> 10-Jun-2013 23:27               13622
r_NL.IMRO.0141.BP00014-0601_0013Maatschappelijk..> 10-Jun-2013 23:27               12922
r_NL.IMRO.0141.BP00014-0601_0014Maatschappelijk..> 10-Jun-2013 23:27               10117
r_NL.IMRO.0141.BP00014-0601_0015Maatschappelijk..> 10-Jun-2013 23:27                9208
r_NL.IMRO.0141.BP00014-0601_0016Maatschappelijk..> 10-Jun-2013 23:27                9178
r_NL.IMRO.0141.BP00014-0601_0017Sport.html         10-Jun-2013 23:27                9889
r_NL.IMRO.0141.BP00014-0601_0018Tuin.html          10-Jun-2013 23:27                8454
r_NL.IMRO.0141.BP00014-0601_0019Verkeer.html       10-Jun-2013 23:27               10376
r_NL.IMRO.0141.BP00014-0601_0020Water.html         10-Jun-2013 23:27                6182
r_NL.IMRO.0141.BP00014-0601_0021Wonen.html         10-Jun-2013 23:27               31849
r_NL.IMRO.0141.BP00014-0601_0022WonenGarageboxe..> 10-Jun-2013 23:27                6201
r_NL.IMRO.0141.BP00014-0601_0023WonenGestapeldw..> 10-Jun-2013 23:27               14880
r_NL.IMRO.0141.BP00014-0601_0024WonenStadsrand...> 10-Jun-2013 23:27               17584
r_NL.IMRO.0141.BP00014-0601_0025LeidingRiool.html  10-Jun-2013 23:27                9151
r_NL.IMRO.0141.BP00014-0601_0026LeidingWater.html  10-Jun-2013 23:27                9303
r_NL.IMRO.0141.BP00014-0601_0027WaardeArcheolog..> 10-Jun-2013 23:27               10469
r_NL.IMRO.0141.BP00014-0601_0028WaardeArcheolog..> 10-Jun-2013 23:27               10386
r_NL.IMRO.0141.BP00014-0601_0029WaardeWaardevol..> 10-Jun-2013 23:27               12923
r_NL.IMRO.0141.BP00014-0601_0030Algemeneregels...> 10-Jun-2013 23:27               14345
r_NL.IMRO.0141.BP00014-0601_0031Antidubbeltelre..> 10-Jun-2013 23:27                3031
r_NL.IMRO.0141.BP00014-0601_0032Algemenegebruik..> 10-Jun-2013 23:27                3505
r_NL.IMRO.0141.BP00014-0601_0033Algemeneaanduid..> 10-Jun-2013 23:27                3873
r_NL.IMRO.0141.BP00014-0601_0034Algemeneafwijki..> 10-Jun-2013 23:27               10071
r_NL.IMRO.0141.BP00014-0601_0035Algemeneprocedu..> 10-Jun-2013 23:27                4262
r_NL.IMRO.0141.BP00014-0601_0036Overgangsenslot..> 10-Jun-2013 23:27                7040
r_NL.IMRO.0141.BP00014-0601_0037Overgangsrecht...> 10-Jun-2013 23:27                6579
r_NL.IMRO.0141.BP00014-0601_0038Slotregel.html     10-Jun-2013 23:27                2920
r_NL.IMRO.0141.BP00014-0601_0039Bijlagenbijdere..> 10-Jun-2013 23:27                3045
rb_NL.IMRO.0141.BP00014-0601.pdf                   10-Jun-2013 23:27               12175
rb_NL.IMRO.0141.BP00014-0601_0041Bijlagenbijder..> 10-Jun-2013 23:27                2912
t_NL.IMRO.0141.BP00014-0601_0000Toelichting.pdf    10-Jun-2013 23:27             6040873
tb_NL.IMRO.0141.BP00014-0601.pdf                   10-Jun-2013 23:27               57011
tb_NL.IMRO.0141.BP00014-0601_0040Bijlagebijdeto..> 10-Jun-2013 23:27                3121
vb_NL.IMRO.0141.BP00014-0601.pdf                   10-Jun-2013 23:27              240449